createdAt,value
2023-03-18T00:01:22.921Z,5.75
2023-03-18T00:03:25.477Z,5.97
2023-03-18T00:05:28.659Z,5.55
2023-03-18T00:07:31.554Z,5.53
2023-03-18T00:09:34.152Z,5.55
2023-03-18T00:11:37.566Z,5.22
2023-03-18T00:13:41.481Z,5.40
2023-03-18T00:15:45.419Z,5.63
2023-03-18T00:17:48.939Z,6.38
2023-03-18T00:19:51.497Z,4.82
2023-03-18T00:21:54.171Z,4.63
2023-03-18T00:23:56.909Z,5.55
2023-03-18T00:26:01.338Z,5.22
2023-03-18T00:28:04.451Z,5.15
2023-03-18T00:30:08.921Z,5.72
2023-03-18T00:32:12.847Z,5.22
2023-03-18T00:34:16.015Z,5.43
2023-03-18T00:36:25.498Z,5.38
2023-03-18T00:38:29.529Z,5.13
2023-03-18T00:40:43.261Z,5.15
2023-03-18T00:42:50.436Z,5.30
2023-03-18T00:44:53.470Z,5.60
2023-03-18T00:46:56.047Z,5.70
2023-03-18T00:49:02.081Z,5.10
2023-03-18T00:51:04.967Z,5.30
2023-03-18T00:53:07.512Z,4.90
2023-03-18T00:55:11.051Z,5.30
2023-03-18T00:57:13.651Z,5.15
2023-03-18T00:59:16.387Z,5.18
2023-03-18T01:01:19.725Z,6.45
2023-03-18T01:03:25.804Z,5.13
2023-03-18T01:05:30.353Z,4.57
2023-03-18T01:07:33.035Z,4.25
2023-03-18T01:09:35.790Z,4.07
2023-03-18T01:11:38.430Z,3.63
2023-03-18T01:13:41.443Z,4.57
2023-03-18T01:15:44.068Z,4.00
2023-03-18T01:17:47.074Z,5.05
2023-03-18T01:19:49.878Z,4.47
2023-03-18T01:21:53.868Z,3.90
2023-03-18T01:23:56.595Z,4.50
2023-03-18T01:25:59.988Z,4.45
2023-03-18T01:28:02.564Z,4.03
2023-03-18T01:30:06.885Z,4.63
2023-03-18T01:32:09.760Z,4.22
2023-03-18T01:34:12.361Z,4.47
2023-03-18T01:36:15.571Z,3.83
2023-03-18T01:38:19.553Z,3.97
2023-03-18T01:40:22.675Z,4.35
2023-03-18T01:42:25.502Z,3.88
2023-03-18T01:44:28.462Z,3.92
2023-03-18T01:46:37.839Z,4.30
2023-03-18T01:48:40.743Z,3.97
2023-03-18T01:50:45.233Z,3.88
2023-03-18T01:52:50.050Z,3.63
2023-03-18T01:54:59.583Z,4.00
2023-03-18T01:57:03.637Z,3.72
2023-03-18T01:59:08.940Z,4.88
2023-03-18T02:01:19.140Z,3.60
2023-03-18T02:03:22.695Z,3.65
2023-03-18T02:05:28.474Z,3.88
2023-03-18T02:07:34.719Z,3.83
2023-03-18T02:09:37.701Z,3.85
2023-03-18T02:11:44.740Z,3.55
2023-03-18T02:13:48.199Z,4.05
2023-03-18T02:15:55.088Z,3.47
2023-03-18T02:18:01.657Z,4.07
2023-03-18T02:20:16.069Z,3.47
2023-03-18T02:22:26.984Z,4.72
2023-03-18T02:24:37.876Z,3.88
2023-03-18T02:26:50.033Z,3.80
2023-03-18T02:28:58.132Z,3.70
2023-03-18T02:31:05.175Z,3.63
2023-03-18T02:33:08.967Z,3.72
2023-03-18T02:35:12.869Z,3.65
2023-03-18T02:37:15.487Z,3.53
2023-03-18T02:39:18.165Z,3.47
2023-03-18T02:41:22.942Z,3.97
2023-03-18T02:43:28.625Z,4.18
2023-03-18T02:45:41.699Z,3.58
2023-03-18T02:47:47.831Z,3.60
2023-03-18T02:49:50.733Z,3.53
2023-03-18T02:51:53.927Z,3.67
2023-03-18T02:54:01.701Z,3.67
2023-03-18T02:56:04.553Z,3.78
2023-03-18T02:58:07.858Z,3.60
2023-03-18T03:00:11.813Z,3.35
2023-03-18T03:02:15.800Z,3.60
2023-03-18T03:04:19.592Z,3.70
2023-03-18T03:06:22.213Z,3.60
2023-03-18T03:08:25.482Z,3.30
2023-03-18T03:10:28.055Z,3.30
2023-03-18T03:12:30.714Z,3.20
2023-03-18T03:14:33.293Z,3.35
2023-03-18T03:16:36.911Z,3.30
2023-03-18T03:18:42.064Z,3.13
2023-03-18T03:20:45.619Z,2.90
2023-03-18T03:22:48.383Z,3.15
2023-03-18T03:24:50.968Z,2.83
2023-03-18T03:26:54.039Z,2.97
2023-03-18T03:28:56.804Z,3.08
2023-03-18T03:30:59.149Z,3.85
2023-03-18T03:33:02.725Z,2.67
2023-03-18T03:35:08.597Z,3.53
2023-03-18T03:37:11.876Z,2.50
2023-03-18T03:39:14.744Z,2.65
2023-03-18T03:41:17.411Z,3.03
2023-03-18T03:43:19.984Z,3.17
2023-03-18T03:45:23.050Z,3.38
2023-03-18T03:47:25.889Z,2.72
2023-03-18T03:49:28.503Z,2.95
2023-03-18T03:51:32.416Z,2.80
2023-03-18T03:53:35.994Z,3.28
2023-03-18T03:55:39.239Z,3.20
2023-03-18T03:57:41.943Z,3.17
2023-03-18T03:59:44.596Z,2.83
2023-03-18T04:01:47.303Z,2.97
2023-03-18T04:03:50.136Z,3.22
2023-03-18T04:05:52.753Z,2.92
2023-03-18T04:07:59.893Z,3.13
2023-03-18T04:10:02.769Z,2.90
2023-03-18T04:12:06.552Z,3.50
2023-03-18T04:14:09.148Z,3.78
2023-03-18T04:16:11.770Z,3.30
2023-03-18T04:18:14.823Z,2.78
2023-03-18T04:20:18.293Z,3.53
2023-03-18T04:22:21.502Z,3.92
2023-03-18T04:24:26.156Z,3.10
2023-03-18T04:26:29.114Z,3.50
2023-03-18T04:28:31.886Z,3.92
2023-03-18T04:30:34.572Z,4.10
2023-03-18T04:32:37.441Z,4.13
2023-03-18T04:34:40.347Z,3.50
2023-03-18T04:36:42.901Z,4.32
2023-03-18T04:38:45.625Z,4.25
2023-03-18T04:40:49.522Z,3.90
2023-03-18T04:42:52.367Z,4.43
2023-03-18T04:44:54.935Z,4.90
2023-03-18T04:46:57.597Z,4.75
2023-03-18T04:49:00.303Z,4.07
2023-03-18T04:51:02.889Z,4.63
2023-03-18T04:53:06.448Z,5.28
2023-03-18T04:55:10.633Z,4.82
2023-03-18T04:57:17.047Z,5.18
2023-03-18T04:59:19.690Z,5.00
2023-03-18T05:01:22.296Z,4.90
2023-03-18T05:03:25.282Z,5.50
2023-03-18T05:05:27.903Z,5.78
2023-03-18T05:07:30.623Z,5.20
2023-03-18T05:09:34.200Z,6.15
2023-03-18T05:11:37.092Z,5.78
2023-03-18T05:13:41.002Z,4.88
2023-03-18T05:15:43.543Z,4.95
2023-03-18T05:17:46.392Z,5.00
2023-03-18T05:19:49.949Z,5.40
2023-03-18T05:21:52.620Z,6.30
2023-03-18T05:23:55.219Z,5.90
2023-03-18T05:25:58.221Z,5.93
2023-03-18T05:28:01.150Z,5.30
2023-03-18T05:30:05.904Z,5.20
2023-03-18T05:32:09.598Z,4.75
2023-03-18T05:34:13.481Z,5.10
2023-03-18T05:36:16.036Z,5.00
2023-03-18T05:38:18.625Z,4.93
2023-03-18T05:40:21.536Z,5.47
2023-03-18T05:42:24.275Z,5.25
2023-03-18T05:44:26.949Z,4.13
2023-03-18T05:46:31.002Z,4.63
2023-03-18T05:48:34.141Z,4.57
2023-03-18T05:50:39.536Z,3.80
2023-03-18T05:52:42.887Z,4.45
2023-03-18T05:54:45.506Z,4.35
2023-03-18T05:56:48.095Z,4.65
2023-03-18T05:58:51.151Z,4.50
2023-03-18T06:00:53.729Z,4.97
2023-03-18T06:02:59.307Z,4.53
2023-03-18T06:05:02.500Z,4.65
2023-03-18T06:07:06.117Z,4.70
2023-03-18T06:09:09.195Z,5.07
2023-03-18T06:11:12.172Z,4.40
2023-03-18T06:13:15.225Z,4.60
2023-03-18T06:15:18.769Z,4.00
2023-03-18T06:17:21.620Z,4.70
2023-03-18T06:19:25.957Z,4.45
2023-03-18T06:21:28.595Z,4.78
2023-03-18T06:23:31.716Z,5.30
2023-03-18T06:25:34.811Z,5.00
2023-03-18T06:27:37.607Z,4.82
2023-03-18T06:29:41.057Z,3.63
2023-03-18T06:31:43.624Z,4.35
2023-03-18T06:33:46.598Z,3.90
2023-03-18T06:35:51.125Z,4.00
2023-03-18T06:37:54.215Z,4.72
2023-03-18T06:39:56.780Z,5.70
2023-03-18T06:41:59.359Z,6.68
2023-03-18T06:44:01.915Z,4.45
2023-03-18T06:46:05.306Z,4.65
2023-03-18T06:48:08.386Z,5.00
2023-03-18T06:50:13.525Z,4.47
2023-03-18T06:52:18.115Z,5.75
2023-03-18T06:54:21.144Z,4.88
2023-03-18T06:56:23.892Z,5.10
2023-03-18T06:58:27.158Z,5.43
2023-03-18T07:00:29.789Z,5.40
2023-03-18T07:02:32.394Z,5.05
2023-03-18T07:04:35.481Z,5.25
2023-03-18T07:06:38.164Z,5.32
2023-03-18T07:08:42.062Z,5.45
2023-03-18T07:10:44.710Z,4.97
2023-03-18T07:12:47.926Z,4.80
2023-03-18T07:14:50.515Z,6.00
2023-03-18T07:16:53.115Z,5.05
2023-03-18T07:18:58.217Z,3.88
2023-03-18T07:21:01.369Z,4.25
2023-03-18T07:23:05.265Z,4.05
2023-03-18T07:25:10.493Z,3.90
2023-03-18T07:27:14.501Z,4.05
2023-03-18T07:29:17.498Z,4.70
2023-03-18T07:31:20.094Z,2.95
2023-03-18T07:33:22.651Z,4.00
2023-03-18T07:35:25.231Z,4.10
2023-03-18T07:37:28.734Z,3.28
2023-03-18T07:39:31.866Z,3.63
2023-03-18T07:41:37.807Z,3.20
2023-03-18T07:43:40.948Z,3.42
2023-03-18T07:45:43.520Z,3.42
2023-03-18T07:47:47.318Z,3.20
2023-03-18T07:49:50.141Z,3.08
2023-03-18T07:51:53.114Z,2.92
2023-03-18T07:53:55.690Z,3.00
2023-03-18T07:55:58.390Z,3.35
2023-03-18T07:58:04.346Z,3.03
2023-03-18T08:00:08.885Z,3.00
2023-03-18T08:02:16.756Z,3.00
2023-03-18T08:04:19.508Z,2.20
2023-03-18T08:06:22.688Z,2.35
2023-03-18T08:08:25.249Z,2.47
2023-03-18T08:10:28.906Z,2.47
2023-03-18T08:12:45.262Z,2.47
2023-03-18T08:14:55.284Z,2.42
2023-03-18T08:16:58.018Z,3.38
2023-03-18T08:19:00.658Z,2.50
2023-03-18T08:21:03.227Z,2.38
2023-03-18T08:23:05.834Z,2.15
2023-03-18T08:25:09.343Z,2.55
2023-03-18T08:27:12.162Z,2.30
2023-03-18T08:29:14.795Z,2.45
2023-03-18T08:31:18.776Z,2.63
2023-03-18T08:33:21.360Z,2.47
2023-03-18T08:35:23.944Z,2.58
2023-03-18T08:37:26.552Z,2.65
2023-03-18T08:39:29.110Z,2.40
2023-03-18T08:41:32.439Z,2.83
2023-03-18T08:43:36.381Z,2.50
2023-03-18T08:45:40.530Z,2.00
2023-03-18T08:47:44.473Z,2.50
2023-03-18T08:49:47.134Z,2.53
2023-03-18T08:51:49.701Z,2.03
2023-03-18T08:53:52.467Z,2.80
2023-03-18T08:55:55.037Z,2.75
2023-03-18T08:57:57.906Z,2.67
2023-03-18T09:00:00.513Z,2.42
2023-03-18T09:02:03.422Z,2.25
2023-03-18T09:04:07.391Z,2.30
2023-03-18T09:06:10.025Z,2.30
2023-03-18T09:08:13.579Z,2.40
2023-03-18T09:10:17.750Z,2.10
2023-03-18T09:12:20.352Z,2.28
2023-03-18T09:14:23.556Z,2.30
2023-03-18T09:16:26.274Z,1.80
2023-03-18T09:18:29.504Z,1.40
2023-03-18T09:20:33.765Z,1.30
2023-03-18T09:22:36.876Z,1.55
2023-03-18T09:24:39.482Z,1.60
2023-03-18T09:26:42.237Z,1.80
2023-03-18T09:28:44.828Z,1.45
2023-03-18T09:30:47.619Z,1.95
2023-03-18T09:32:50.580Z,2.05
2023-03-18T09:34:55.763Z,1.88
2023-03-18T09:36:59.671Z,1.60
2023-03-18T09:39:02.232Z,2.08
2023-03-18T09:41:13.753Z,2.17
2023-03-18T09:43:32.232Z,1.83
2023-03-18T09:45:41.127Z,1.52
2023-03-18T09:47:57.338Z,2.38
2023-03-18T09:50:11.513Z,1.67
2023-03-18T09:52:27.165Z,1.70
2023-03-18T09:54:36.477Z,1.90
2023-03-18T09:56:40.135Z,1.90
2023-03-18T09:58:50.849Z,1.58
2023-03-18T10:00:58.015Z,1.60
2023-03-18T10:03:06.499Z,1.90
2023-03-18T10:05:15.909Z,1.40
2023-03-18T10:07:23.704Z,2.25
2023-03-18T10:09:31.911Z,1.98
2023-03-18T10:11:38.460Z,1.85
2023-03-18T10:13:48.194Z,1.60
2023-03-18T10:15:56.617Z,2.10
2023-03-18T10:18:06.055Z,1.98
2023-03-18T10:20:17.787Z,1.73
2023-03-18T10:22:47.138Z,2.10
2023-03-18T10:24:59.917Z,1.98
2023-03-18T10:27:10.487Z,1.60
2023-03-18T10:29:37.281Z,1.55
2023-03-18T10:31:52.475Z,2.80
2023-03-18T10:33:59.343Z,1.73
2023-03-18T10:36:08.849Z,1.90
2023-03-18T10:38:20.591Z,1.70
2023-03-18T10:40:25.943Z,1.73
2023-03-18T10:42:31.209Z,1.42
2023-03-18T10:44:36.826Z,1.80
2023-03-18T10:46:39.635Z,1.75
2023-03-18T10:48:46.616Z,1.40
2023-03-18T10:51:07.765Z,1.52
2023-03-18T10:53:18.213Z,2.17
2023-03-18T10:55:27.400Z,1.60
2023-03-18T10:57:30.127Z,1.60
2023-03-18T10:59:33.482Z,1.95
2023-03-18T11:01:38.072Z,1.65
2023-03-18T11:03:45.204Z,1.70
2023-03-18T11:05:48.887Z,1.80
2023-03-18T11:08:00.694Z,1.95
2023-03-18T11:12:23.771Z,2.38
2023-03-18T11:14:30.557Z,2.30
2023-03-18T11:16:38.189Z,1.90
2023-03-18T11:18:47.160Z,1.80
2023-03-18T11:21:00.524Z,1.70
2023-03-18T11:23:13.637Z,1.98
2023-03-18T11:25:18.003Z,1.88
2023-03-18T11:27:27.821Z,1.38
2023-03-18T11:29:33.434Z,1.70
2023-03-18T11:31:50.582Z,1.60
2023-03-18T11:33:58.840Z,1.77
2023-03-18T11:36:07.402Z,1.40
2023-03-18T11:38:16.910Z,1.55
2023-03-18T11:40:28.069Z,1.95
2023-03-18T11:42:33.378Z,1.63
2023-03-18T11:44:35.936Z,1.55
2023-03-18T11:46:42.728Z,1.45
2023-03-18T11:48:45.458Z,1.08
2023-03-18T11:51:20.861Z,1.50
2023-03-18T11:53:31.251Z,1.10
2023-03-18T11:55:43.515Z,2.13
2023-03-18T11:58:22.852Z,1.92
2023-03-18T12:00:33.946Z,1.20
2023-03-18T12:02:54.142Z,1.58
2023-03-18T12:05:10.892Z,1.35
2023-03-18T12:07:41.467Z,1.60
2023-03-18T12:09:50.448Z,1.50
2023-03-18T12:12:06.801Z,1.60
2023-03-18T12:14:19.587Z,1.40
2023-03-18T12:16:40.501Z,1.25
2023-03-18T12:18:58.719Z,1.48
2023-03-18T12:21:05.279Z,1.75
2023-03-18T12:23:23.044Z,1.40
2023-03-18T12:25:41.805Z,1.10
2023-03-18T12:27:56.562Z,1.40
2023-03-18T12:30:09.873Z,1.45
2023-03-18T12:32:25.587Z,1.45
2023-03-18T12:34:43.047Z,1.00
2023-03-18T12:36:58.592Z,1.55
2023-03-18T12:39:15.867Z,1.30
2023-03-18T12:41:21.473Z,1.38
2023-03-18T12:43:45.373Z,1.42
2023-03-18T12:45:54.194Z,1.38
2023-03-18T12:48:02.351Z,1.20
2023-03-18T12:50:08.895Z,1.30
2023-03-18T12:52:20.736Z,1.42
2023-03-18T12:56:31.579Z,1.10
2023-03-18T12:58:39.643Z,1.10
2023-03-18T13:00:47.968Z,1.25
2023-03-18T13:03:09.726Z,1.20
2023-03-18T13:05:25.452Z,1.30
2023-03-18T13:07:38.675Z,1.23
2023-03-18T13:09:45.148Z,1.10
2023-03-18T13:12:05.029Z,1.30
2023-03-18T13:14:18.692Z,1.10
2023-03-18T13:16:25.347Z,1.30
2023-03-18T13:18:37.998Z,1.20
2023-03-18T13:20:42.286Z,1.15
2023-03-18T13:23:01.663Z,1.40
2023-03-18T13:25:19.351Z,1.55
2023-03-18T13:27:41.612Z,1.30
2023-03-18T13:29:51.882Z,1.00
2023-03-18T13:32:01.239Z,1.10
2023-03-18T13:34:26.499Z,0.90
2023-03-18T13:36:51.604Z,1.30
2023-03-18T13:39:05.470Z,1.20
2023-03-18T13:41:25.452Z,1.10
2023-03-18T13:43:29.254Z,1.25
2023-03-18T13:45:33.816Z,1.20
2023-03-18T13:47:39.112Z,1.30
2023-03-18T13:49:44.551Z,1.20
2023-03-18T13:51:54.174Z,1.27
2023-03-18T13:54:00.789Z,0.88
2023-03-18T13:56:05.903Z,1.00
2023-03-18T13:58:24.302Z,1.00
2023-03-18T14:00:31.547Z,1.02
2023-03-18T14:02:45.448Z,1.00
2023-03-18T14:04:50.805Z,0.85
2023-03-18T14:06:55.414Z,1.05
2023-03-18T14:08:58.050Z,1.17
2023-03-18T14:11:50.002Z,1.08
2023-03-18T14:13:54.731Z,1.00
2023-03-18T14:15:58.720Z,1.10
2023-03-18T14:18:01.618Z,1.20
2023-03-18T14:20:21.871Z,1.30
2023-03-18T14:22:29.185Z,1.20
2023-03-18T14:24:32.396Z,1.20
2023-03-18T14:26:34.978Z,1.33
2023-03-18T14:28:45.535Z,1.63
2023-03-18T14:31:13.672Z,1.60
2023-03-18T14:33:34.486Z,1.58
2023-03-18T14:35:50.515Z,1.25
2023-03-18T14:38:03.494Z,1.52
2023-03-18T14:40:14.219Z,1.30
2023-03-18T14:42:29.750Z,2.60
2023-03-18T14:44:40.912Z,1.33
2023-03-18T14:46:46.331Z,1.38
2023-03-18T14:48:53.739Z,1.88
2023-03-18T14:51:00.151Z,1.42
2023-03-18T14:53:12.674Z,1.40
2023-03-18T14:55:20.614Z,1.67
2023-03-18T14:57:23.788Z,1.40
2023-03-18T14:59:27.161Z,1.20
2023-03-18T15:01:36.587Z,1.50
2023-03-18T15:03:41.582Z,1.63
2023-03-18T15:05:46.475Z,2.03
2023-03-18T15:07:54.624Z,1.20
2023-03-18T15:09:57.320Z,1.50
2023-03-18T15:11:59.889Z,1.75
2023-03-18T15:14:02.476Z,1.55
2023-03-18T15:16:05.993Z,2.42
2023-03-18T15:18:18.585Z,1.60
2023-03-18T15:20:22.943Z,1.67
2023-03-18T15:22:30.615Z,1.80
2023-03-18T15:24:35.006Z,2.42
2023-03-18T15:26:42.097Z,1.80
2023-03-18T15:28:47.659Z,1.90
2023-03-18T15:30:55.705Z,1.90
2023-03-18T15:33:07.025Z,1.30
2023-03-18T15:35:16.638Z,3.97
2023-03-18T15:37:33.544Z,1.80
2023-03-18T15:39:39.824Z,1.80
2023-03-18T15:41:42.591Z,1.80
2023-03-18T15:43:47.188Z,2.30
2023-03-18T15:45:55.544Z,1.55
2023-03-18T15:47:59.486Z,1.67
2023-03-18T15:50:10.518Z,2.08
2023-03-18T15:52:17.113Z,1.63
2023-03-18T15:54:28.018Z,1.95
2023-03-18T15:56:35.462Z,1.90
2023-03-18T15:58:39.387Z,1.60
2023-03-18T16:00:42.813Z,2.03
2023-03-18T16:02:45.471Z,2.15
2023-03-18T16:04:48.612Z,1.85
2023-03-18T16:06:52.421Z,2.13
2023-03-18T16:08:55.547Z,5.72
2023-03-18T16:11:01.791Z,6.15
2023-03-18T16:13:05.836Z,4.97
2023-03-18T16:15:15.530Z,4.57
2023-03-18T16:17:22.170Z,3.08
2023-03-18T16:19:27.946Z,2.83
2023-03-18T16:21:30.638Z,3.42
2023-03-18T16:23:33.235Z,3.10
2023-03-18T16:25:36.003Z,3.35
2023-03-18T16:27:44.029Z,2.88
2023-03-18T16:29:48.372Z,3.70
2023-03-18T16:31:51.134Z,5.60
2023-03-18T16:33:56.121Z,6.55
2023-03-18T16:36:01.570Z,5.10
2023-03-18T16:38:04.216Z,5.97
2023-03-18T16:40:18.341Z,6.07
2023-03-18T16:42:21.609Z,6.43
2023-03-18T16:44:24.411Z,4.38
2023-03-18T16:46:28.510Z,4.20
2023-03-18T16:48:31.201Z,3.35
2023-03-18T16:50:35.982Z,3.63
2023-03-18T16:52:38.864Z,2.90
2023-03-18T16:54:41.946Z,2.72
2023-03-18T16:56:45.216Z,2.85
2023-03-18T16:58:47.793Z,3.47
2023-03-18T17:00:51.104Z,2.72
2023-03-18T17:02:55.504Z,3.15
2023-03-18T17:04:58.200Z,3.78
2023-03-18T17:07:03.578Z,3.60
2023-03-18T17:09:06.168Z,7.50
2023-03-18T17:11:11.461Z,6.60
2023-03-18T17:13:19.978Z,6.85
2023-03-18T17:15:28.778Z,5.82
2023-03-18T17:17:35.710Z,5.32
2023-03-18T17:19:40.091Z,6.45
2023-03-18T17:21:42.707Z,5.65
2023-03-18T17:23:45.655Z,5.30
2023-03-18T17:25:51.891Z,5.13
2023-03-18T17:27:57.257Z,6.20
2023-03-18T17:29:59.829Z,5.47
2023-03-18T17:32:02.593Z,5.35
2023-03-18T17:34:13.867Z,5.80
2023-03-18T17:36:18.167Z,5.10
2023-03-18T17:38:21.082Z,5.32
2023-03-18T17:40:27.032Z,6.22
2023-03-18T17:42:32.336Z,5.65
2023-03-18T17:44:34.935Z,5.50
2023-03-18T17:46:38.013Z,5.65
2023-03-18T17:48:41.078Z,6.82
2023-03-18T17:50:44.866Z,6.43
2023-03-18T17:52:52.586Z,5.68
2023-03-18T17:54:55.619Z,5.68
2023-03-18T17:56:58.233Z,5.10
2023-03-18T17:59:00.810Z,5.40
2023-03-18T18:01:07.046Z,5.03
2023-03-18T18:03:21.609Z,5.88
2023-03-18T18:05:24.676Z,5.93
2023-03-18T18:07:27.247Z,7.53
2023-03-18T18:09:31.189Z,5.97
2023-03-18T18:11:37.807Z,6.65
2023-03-18T18:13:40.429Z,6.35
2023-03-18T18:15:43.427Z,7.80
2023-03-18T18:17:48.452Z,7.20
2023-03-18T18:19:51.069Z,5.97
2023-03-18T18:21:54.865Z,5.60
2023-03-18T18:23:57.476Z,5.40
2023-03-18T18:26:04.573Z,5.57
2023-03-18T18:28:18.354Z,5.25
2023-03-18T18:30:25.108Z,5.22
2023-03-18T18:32:27.685Z,5.13
2023-03-18T18:34:30.238Z,4.60
2023-03-18T18:36:33.030Z,5.38
2023-03-18T18:38:35.899Z,5.50
2023-03-18T18:40:38.480Z,5.47
2023-03-18T18:42:43.509Z,6.57
2023-03-18T18:44:46.931Z,5.80
2023-03-18T18:46:49.692Z,4.40
2023-03-18T18:48:53.803Z,4.75
2023-03-18T18:50:57.150Z,4.88
2023-03-18T18:53:00.462Z,4.40
2023-03-18T18:55:03.737Z,4.60
2023-03-18T18:57:07.350Z,5.32
2023-03-18T18:59:22.983Z,4.90
2023-03-18T19:01:25.835Z,4.90
2023-03-18T19:03:31.374Z,4.32
2023-03-18T19:05:35.732Z,4.22
2023-03-18T19:07:39.563Z,5.68
2023-03-18T19:09:42.570Z,4.72
2023-03-18T19:11:45.240Z,5.05
2023-03-18T19:13:48.132Z,5.00
2023-03-18T19:15:53.819Z,5.07
2023-03-18T19:17:56.441Z,4.97
2023-03-18T19:19:59.000Z,5.05
2023-03-18T19:22:02.820Z,5.07
2023-03-18T19:24:26.247Z,6.78
2023-03-18T19:26:28.898Z,6.22
2023-03-18T19:28:58.371Z,5.20
2023-03-18T19:31:04.413Z,6.38
2023-03-18T19:33:14.999Z,5.60
2023-03-18T19:35:17.875Z,6.22
2023-03-18T19:37:24.846Z,6.18
2023-03-18T19:39:28.104Z,6.68
2023-03-18T19:41:31.292Z,6.30
2023-03-18T19:43:33.907Z,6.53
2023-03-18T19:45:36.860Z,6.05
2023-03-18T19:47:42.130Z,5.25
2023-03-18T19:49:45.063Z,5.50
2023-03-18T19:51:49.722Z,4.70
2023-03-18T19:53:52.432Z,5.53
2023-03-18T19:55:55.173Z,7.07
2023-03-18T19:57:58.276Z,7.60
2023-03-18T20:00:05.867Z,8.48
2023-03-18T20:02:21.046Z,7.47
2023-03-18T20:04:27.533Z,8.18
2023-03-18T20:06:30.120Z,7.97
2023-03-18T20:08:32.740Z,8.07
2023-03-18T20:10:35.509Z,7.75
2023-03-18T20:12:39.692Z,8.23
2023-03-18T20:14:42.347Z,9.13
2023-03-18T20:16:44.931Z,9.27
2023-03-18T20:18:47.474Z,8.50
2023-03-18T20:20:52.411Z,8.65
2023-03-18T20:22:59.404Z,8.85
2023-03-18T20:25:03.194Z,8.52
2023-03-18T20:27:05.898Z,8.88
2023-03-18T20:29:19.522Z,8.43
2023-03-18T20:31:22.141Z,8.35
2023-03-18T20:33:24.778Z,9.38
2023-03-18T20:35:29.467Z,9.02
2023-03-18T20:37:36.040Z,7.47
2023-03-18T20:39:38.682Z,7.85
2023-03-18T20:41:41.238Z,8.77
2023-03-18T20:43:44.058Z,9.02
2023-03-18T20:45:46.735Z,8.68
2023-03-18T20:47:49.859Z,7.68
2023-03-18T20:49:53.917Z,7.30
2023-03-18T20:51:57.801Z,8.80
2023-03-18T20:54:02.230Z,9.07
2023-03-18T20:56:05.239Z,9.20
2023-03-18T20:58:14.444Z,8.65
2023-03-18T21:00:19.504Z,7.72
2023-03-18T21:02:30.072Z,7.38
2023-03-18T21:04:32.695Z,8.25
2023-03-18T21:06:35.849Z,7.07
2023-03-18T21:08:38.444Z,7.00
2023-03-18T21:10:42.442Z,8.20
2023-03-18T21:12:45.581Z,6.70
2023-03-18T21:14:48.834Z,7.45
2023-03-18T21:16:51.833Z,7.50
2023-03-18T21:18:54.406Z,7.40
2023-03-18T21:20:57.392Z,8.00
2023-03-18T21:23:00.124Z,8.20
2023-03-18T21:25:03.234Z,7.63
2023-03-18T21:27:07.699Z,9.90
2023-03-18T21:29:10.304Z,9.48
2023-03-18T21:31:23.967Z,9.18
2023-03-18T21:33:31.178Z,10.02
2023-03-18T21:35:34.473Z,9.20
2023-03-18T21:37:37.232Z,9.68
2023-03-18T21:39:39.773Z,10.27
2023-03-18T21:41:42.989Z,10.10
2023-03-18T21:43:47.671Z,10.40
2023-03-18T21:45:50.519Z,10.05
2023-03-18T21:47:53.397Z,9.98
2023-03-18T21:49:58.020Z,11.68
2023-03-18T21:52:00.608Z,12.98
2023-03-18T21:54:03.257Z,13.52
2023-03-18T21:56:06.483Z,12.23
2023-03-18T21:58:15.692Z,9.32
2023-03-18T22:00:21.560Z,9.98
2023-03-18T22:02:29.810Z,10.18
2023-03-18T22:04:32.395Z,10.63
2023-03-18T22:06:34.942Z,10.25
2023-03-18T22:08:37.487Z,10.45
2023-03-18T22:10:41.029Z,9.50
2023-03-18T22:12:43.733Z,9.80
2023-03-18T22:14:46.299Z,9.18
2023-03-18T22:16:50.300Z,9.00
2023-03-18T22:18:52.889Z,8.50
2023-03-18T22:20:57.001Z,8.18
2023-03-18T22:22:59.564Z,8.30
2023-03-18T22:25:02.189Z,8.70
2023-03-18T22:27:04.936Z,8.48
2023-03-18T22:29:07.492Z,9.88
2023-03-18T22:31:17.912Z,8.32
2023-03-18T22:33:25.805Z,9.25
2023-03-18T22:35:30.298Z,8.43
2023-03-18T22:37:33.055Z,9.02
2023-03-18T22:39:35.623Z,8.93
2023-03-18T22:41:38.188Z,9.35
2023-03-18T22:43:40.865Z,8.60
2023-03-18T22:45:43.457Z,8.65
2023-03-18T22:47:46.120Z,8.80
2023-03-18T22:49:50.527Z,7.55
2023-03-18T22:51:53.114Z,7.45
2023-03-18T22:53:56.081Z,8.85
2023-03-18T22:56:02.324Z,8.80
2023-03-18T22:58:05.490Z,9.25
2023-03-18T23:00:25.854Z,7.80
2023-03-18T23:02:28.876Z,8.00
2023-03-18T23:04:31.815Z,8.13
2023-03-18T23:06:35.819Z,7.80
2023-03-18T23:08:38.404Z,8.68
2023-03-18T23:10:41.848Z,8.02
2023-03-18T23:12:44.726Z,8.30
2023-03-18T23:14:47.506Z,7.85
2023-03-18T23:16:50.057Z,8.18
2023-03-18T23:18:53.130Z,8.32
2023-03-18T23:20:55.794Z,7.75
2023-03-18T23:22:59.678Z,7.80
2023-03-18T23:25:02.495Z,7.63
2023-03-18T23:27:05.475Z,7.70
2023-03-18T23:29:08.972Z,8.07
2023-03-18T23:31:11.822Z,8.48
2023-03-18T23:33:15.057Z,7.78
2023-03-18T23:35:19.519Z,7.68
2023-03-18T23:37:22.564Z,8.30
2023-03-18T23:39:27.177Z,7.82
2023-03-18T23:41:29.754Z,7.95
2023-03-18T23:43:32.359Z,8.02
2023-03-18T23:45:35.237Z,8.27
2023-03-18T23:47:38.438Z,6.95
2023-03-18T23:49:41.296Z,6.95
2023-03-18T23:51:43.858Z,6.68
2023-03-18T23:53:46.585Z,7.57
2023-03-18T23:55:50.710Z,6.82
2023-03-18T23:57:53.350Z,7.00
2023-03-18T23:59:55.995Z,7.57
